Greater Binghamton/Edwin A Link field
KBGM : rendu visible

Aérodrome :











RETROUVEZ-NOUS SUR...

 
LOGIN :

S'inscrire | Disclaimer

   EN    FR    IT 

 









Légende :    VFR   VFR Marginal   IFR   IFR Intensif   IFR Très Intensif
Visi : 
Plafond : 
>= 8 km
>= 3000ft
5 à 8 km
1000 à 3000 ft
1500m à 5 km
500 à 1000 ft
800 à 1500m
200 à 500 ft
< 800m
< 200 ft
Symboles :   Orages  Brouillard  Fortes neiges  Fortes précipitations  Vent > 20 kt






- Altitude de l'aérodrome : 1636 ft
- Code IATA : BGM


KBGM - Greater Binghamton/Edwin A Link field

DERNIER METAR :
  • 100653Z AUTO 19009KT 4SM BR BKN004 OVC007 07/06 A2959 RMK AO2 RAE37 SLP028 P0002 T00670061

METARs EXPIRÉS :
  • 100634Z AUTO 20009KT 9SM -RA BKN004 BKN011 OVC016 07/06 A2959 RMK AO2 CIG 001V008 P0002 T00670061
  • 100625Z AUTO 20008KT 6SM -RA BR SCT002 SCT006 OVC013 07/06 A2959 RMK AO2 P0002 T00670061
  • 100615Z AUTO 19009KT 4SM -RA BR BKN002 OVC015 07/06 A2959 RMK AO2 P0001 T00670061
  • 100600Z AUTO 20009KT 3SM -RA BR BKN003 BKN016 OVC040 07/06 A2959 RMK AO2 P0000 T00670061
  • 100553Z AUTO 20009G15KT 2 1/2SM -RA BR BKN003 OVC014 07/06 A2959 RMK AO2 VIS 1 1/2V5 SLP027 P0004 60013 T00670061 10067 20056 56009
  • 100532Z AUTO 20008KT 5SM -RA BR OVC004 07/06 A2959 RMK AO2 P0003 T00670061
  • 100453Z AUTO 20010KT 10SM -RA OVC006 07/06 A2959 RMK AO2 PK WND 17026/0439 RAB13 SLP030 P0003 T00670061 400670006

TAF KBGM
Valide du 10 à 06h jusqu'au 11 à 06h UTC


100537Z 1006/1106 18009KT 5SM -RA BR OVC009 WS020/20035KT
TEMPO 1006/1008 2SM -SHRA BR OVC007
FM100800 21010KT 5SM -SHRA BR OVC014 WS020/23040KT
FM101600 27010G18KT P6SM SCT020 OVC028
FM102200 30009KT 6SM -RASN OVC025
FM110100 VRB02KT P6SM OVC035



MET'MAP, la Météo Aéronautique d'un coup d'oeil ! - Copyright ORBIFLY Décembre 2007 - Disclaimer

ORBIFLY MET'MAP TEAM :

Programmation & Développement : Alexandra Zaïnal
Sur une idée originale de : Baudouin d'Aumeries
Assistance à la programmation : Marc-Olivier Méhu
Soutien technique & logistique : Manuel Goepfert

Contact : metmap@orbifly.com




SOURCES & CREDITS :

   NOAA       Earth
Advisory